Time;durP1;ratioP1;P1;durP2;ratioP2;P2;SDS_P1;SDS_P2;PMS_P1;PMS_P2;Temp;Humidity;BMP_temperature;BMP_pressure;BME280_temperature;BME280_humidity;BME280_pressure;Samples;Min_cycle;Max_cycle;Signal;HPM_P1;HPM_P2
2023/09/08 00:01:20;;;;;;;5.70;3.07;;;;;;;;;;5286045;28;20035;-69
2023/09/08 00:03:53;;;;;;;3.95;3.20;;;;;;;;;;5284772;28;20799;-70
2023/09/08 00:06:24;;;;;;;4.18;3.67;;;;;;;;;;5285819;28;20027;-70
2023/09/08 00:08:55;;;;;;;6.37;3.47;;;;;;;;;;5284268;28;20032;-70
2023/09/08 00:11:26;;;;;;;4.70;3.57;;;;;;;;;;5284777;28;20290;-70
2023/09/08 00:13:57;;;;;;;4.78;3.55;;;;;;;;;;5285768;28;20342;-70
2023/09/08 00:16:29;;;;;;;6.63;4.10;;;;;;;;;;5285609;28;20020;-69
2023/09/08 00:19:01;;;;;;;4.47;3.97;;;;;;;;;;5284971;28;20255;-69
2023/09/08 00:21:32;;;;;;;9.40;3.58;;;;;;;;;;5285167;28;20020;-70
2023/09/08 00:24:06;;;;;;;6.07;3.30;;;;;;;;;;5284806;28;20020;-69
2023/09/08 00:26:37;;;;;;;4.47;3.65;;;;;;;;;;5285007;28;20328;-70
2023/09/08 00:29:08;;;;;;;4.95;3.50;;;;;;;;;;5285730;28;20414;-70
2023/09/08 00:31:39;;;;;;;4.22;3.22;;;;;;;;;;5284220;28;20016;-69
2023/09/08 00:34:11;;;;;;;4.93;3.55;;;;;;;;;;5285354;28;20092;-69
2023/09/08 00:36:42;;;;;;;5.07;4.00;;;;;;;;;;5284943;28;20463;-69
2023/09/08 00:39:13;;;;;;;6.15;4.00;;;;;;;;;;5284731;28;20294;-69
2023/09/08 00:41:44;;;;;;;5.60;3.83;;;;;;;;;;5284730;28;20023;-69
2023/09/08 00:44:15;;;;;;;4.18;3.72;;;;;;;;;;5285247;28;20271;-70
2023/09/08 00:46:47;;;;;;;5.43;3.88;;;;;;;;;;5283717;28;20487;-70
2023/09/08 00:49:18;;;;;;;3.80;3.45;;;;;;;;;;5285075;28;20013;-69
2023/09/08 00:51:49;;;;;;;4.88;4.00;;;;;;;;;;5284683;28;20394;-69
2023/09/08 00:54:21;;;;;;;5.50;4.53;;;;;;;;;;5284441;28;20012;-70
2023/09/08 00:56:55;;;;;;;6.80;4.40;;;;;;;;;;5284249;28;20027;-70
2023/09/08 00:59:27;;;;;;;4.22;3.83;;;;;;;;;;5283789;28;20034;-70
2023/09/08 01:01:58;;;;;;;5.75;4.20;;;;;;;;;;5284609;28;20031;-69
2023/09/08 01:04:30;;;;;;;4.68;4.00;;;;;;;;;;5284623;28;20024;-70
2023/09/08 01:07:01;;;;;;;5.40;3.85;;;;;;;;;;5283862;28;20115;-70
2023/09/08 01:09:33;;;;;;;5.55;4.35;;;;;;;;;;5284099;28;20021;-70
2023/09/08 01:12:05;;;;;;;6.60;3.92;;;;;;;;;;5284713;28;20023;-70
2023/09/08 01:14:36;;;;;;;4.70;4.22;;;;;;;;;;5283494;28;20456;-70
2023/09/08 01:17:09;;;;;;;4.30;3.90;;;;;;;;;;5284877;28;20044;-69
2023/09/08 01:19:41;;;;;;;4.82;3.92;;;;;;;;;;5283968;28;20020;-70
2023/09/08 01:22:28;;;;;;;4.57;4.13;;;;;;;;;;5283695;28;20021;-69
2023/09/08 01:25:12;;;;;;;5.05;4.00;;;;;;;;;;5284594;28;20021;-69
2023/09/08 01:27:45;;;;;;;4.82;4.20;;;;;;;;;;5283026;28;20040;-69
2023/09/08 01:30:17;;;;;;;4.45;4.05;;;;;;;;;;5284265;28;20016;-69
2023/09/08 01:32:49;;;;;;;4.28;3.85;;;;;;;;;;5283650;28;20029;-70
2023/09/08 01:35:20;;;;;;;4.47;4.07;;;;;;;;;;5283450;28;20016;-69
2023/09/08 01:37:51;;;;;;;5.03;3.90;;;;;;;;;;5283743;28;20470;-69
2023/09/08 01:40:22;;;;;;;5.90;4.05;;;;;;;;;;5284159;28;20466;-70
2023/09/08 01:42:54;;;;;;;4.95;4.45;;;;;;;;;;5282811;28;20013;-69
2023/09/08 01:45:25;;;;;;;6.57;4.03;;;;;;;;;;5283787;28;20063;-68
2023/09/08 01:47:56;;;;;;;5.18;4.07;;;;;;;;;;5283923;28;20017;-70
2023/09/08 01:50:27;;;;;;;4.57;4.17;;;;;;;;;;5282924;28;20052;-70
2023/09/08 01:52:58;;;;;;;6.40;4.40;;;;;;;;;;5283715;28;20266;-70
2023/09/08 01:55:30;;;;;;;5.25;4.20;;;;;;;;;;5282413;28;20290;-70
2023/09/08 01:58:01;;;;;;;4.85;4.05;;;;;;;;;;5284165;28;20013;-70
2023/09/08 02:00:32;;;;;;;4.63;4.22;;;;;;;;;;5282962;28;20041;-71
2023/09/08 02:03:03;;;;;;;6.30;4.65;;;;;;;;;;5283091;28;20086;-70
2023/09/08 02:05:38;;;;;;;4.95;4.43;;;;;;;;;;5283166;28;20020;-70
2023/09/08 02:08:09;;;;;;;4.80;3.95;;;;;;;;;;5283417;28;20048;-70
2023/09/08 02:10:41;;;;;;;5.70;4.37;;;;;;;;;;5282206;28;20029;-70
2023/09/08 02:13:12;;;;;;;5.00;4.20;;;;;;;;;;5283593;28;20258;-70
2023/09/08 02:15:43;;;;;;;6.40;4.40;;;;;;;;;;5282195;28;20067;-70
2023/09/08 02:18:14;;;;;;;4.93;4.43;;;;;;;;;;5282571;28;20103;-70
2023/09/08 02:20:46;;;;;;;6.10;4.35;;;;;;;;;;5282577;28;20379;-70
2023/09/08 02:23:17;;;;;;;4.82;4.22;;;;;;;;;;5283540;28;20016;-70
2023/09/08 02:25:48;;;;;;;4.53;4.03;;;;;;;;;;5281858;28;20029;-70
2023/09/08 02:28:19;;;;;;;4.47;4.07;;;;;;;;;;5283293;28;20022;-70
2023/09/08 02:30:50;;;;;;;4.77;4.37;;;;;;;;;;5281786;28;20271;-70
2023/09/08 02:33:21;;;;;;;4.60;4.20;;;;;;;;;;5282987;28;20324;-70
2023/09/08 02:35:53;;;;;;;4.57;3.95;;;;;;;;;;5282595;28;20342;-70
2023/09/08 02:38:24;;;;;;;5.32;4.40;;;;;;;;;;5282007;28;20367;-71
2023/09/08 02:40:55;;;;;;;5.50;4.50;;;;;;;;;;5282501;28;20031;-70
2023/09/08 02:43:27;;;;;;;4.87;4.37;;;;;;;;;;5282405;28;20263;-70
2023/09/08 02:45:58;;;;;;;5.45;4.50;;;;;;;;;;5281955;28;20766;-70
2023/09/08 02:48:29;;;;;;;7.07;4.60;;;;;;;;;;5282352;28;20048;-70
2023/09/08 02:51:00;;;;;;;5.27;3.97;;;;;;;;;;5282513;28;20269;-70
2023/09/08 02:53:32;;;;;;;4.32;3.85;;;;;;;;;;5281200;28;20660;-70
2023/09/08 02:56:05;;;;;;;4.55;4.20;;;;;;;;;;5282504;28;20074;-70
2023/09/08 02:58:36;;;;;;;5.43;4.07;;;;;;;;;;5281752;28;20067;-70
2023/09/08 03:01:12;;;;;;;5.72;4.75;;;;;;;;;;5282275;28;20028;-70
2023/09/08 03:03:43;;;;;;;5.72;4.45;;;;;;;;;;5282014;28;20100;-70
2023/09/08 03:06:15;;;;;;;4.97;4.55;;;;;;;;;;5281642;28;20091;-70
2023/09/08 03:08:46;;;;;;;5.20;4.55;;;;;;;;;;5281702;28;20102;-70
2023/09/08 03:11:17;;;;;;;5.87;4.90;;;;;;;;;;5282513;28;20020;-70
2023/09/08 03:13:48;;;;;;;5.10;4.57;;;;;;;;;;5280929;28;20284;-70
2023/09/08 03:16:20;;;;;;;5.43;4.50;;;;;;;;;;5282378;28;20299;-70
2023/09/08 03:18:51;;;;;;;5.15;4.65;;;;;;;;;;5281680;28;20656;-70
2023/09/08 03:21:22;;;;;;;4.97;4.57;;;;;;;;;;5281676;28;20020;-70
2023/09/08 03:23:53;;;;;;;6.35;4.75;;;;;;;;;;5281538;28;20048;-70
2023/09/08 03:26:24;;;;;;;5.95;5.20;;;;;;;;;;5281113;28;20450;-69
2023/09/08 03:28:56;;;;;;;5.57;4.72;;;;;;;;;;5281022;28;20008;-70
2023/09/08 03:31:27;;;;;;;6.55;4.97;;;;;;;;;;5281832;28;20462;-70
2023/09/08 03:33:58;;;;;;;6.60;5.65;;;;;;;;;;5280951;28;20017;-70
2023/09/08 03:36:30;;;;;;;5.88;5.28;;;;;;;;;;5281674;28;20552;-70
2023/09/08 03:39:02;;;;;;;5.90;5.13;;;;;;;;;;5282163;28;20024;-70
2023/09/08 03:41:33;;;;;;;6.25;5.57;;;;;;;;;;5280727;28;20021;-70
2023/09/08 03:44:04;;;;;;;6.33;5.17;;;;;;;;;;5281965;28;20020;-70
2023/09/08 03:46:36;;;;;;;7.60;5.82;;;;;;;;;;5281579;28;20316;-70
2023/09/08 03:49:08;;;;;;;5.55;5.05;;;;;;;;;;5281594;28;20013;-70
2023/09/08 03:51:39;;;;;;;5.93;5.43;;;;;;;;;;5281537;28;20024;-70
2023/09/08 03:54:10;;;;;;;7.68;5.60;;;;;;;;;;5281946;28;20009;-70
2023/09/08 03:56:41;;;;;;;7.10;6.10;;;;;;;;;;5280715;28;20028;-70
2023/09/08 03:59:12;;;;;;;6.50;4.90;;;;;;;;;;5281674;28;20286;-70
2023/09/08 04:01:44;;;;;;;5.30;4.80;;;;;;;;;;5281156;28;20486;-69
2023/09/08 04:04:15;;;;;;;5.43;4.93;;;;;;;;;;5281108;28;20742;-70
2023/09/08 04:06:46;;;;;;;5.93;5.43;;;;;;;;;;5281056;28;20271;-69
2023/09/08 04:09:17;;;;;;;5.67;5.17;;;;;;;;;;5280905;28;20056;-69
2023/09/08 04:11:48;;;;;;;6.40;5.10;;;;;;;;;;5281304;28;20863;-69
2023/09/08 04:14:20;;;;;;;4.90;4.50;;;;;;;;;;5281798;28;20024;-70
2023/09/08 04:16:51;;;;;;;5.57;4.85;;;;;;;;;;5280294;28;20267;-69
2023/09/08 04:19:22;;;;;;;6.17;5.57;;;;;;;;;;5281593;28;20027;-69
2023/09/08 04:21:53;;;;;;;5.73;4.87;;;;;;;;;;5281249;28;20278;-69
2023/09/08 04:24:24;;;;;;;5.47;4.87;;;;;;;;;;5280697;28;20336;-70
2023/09/08 04:26:56;;;;;;;5.73;5.23;;;;;;;;;;5281314;28;20358;-69
2023/09/08 04:29:27;;;;;;;5.60;5.13;;;;;;;;;;5281563;28;20270;-69
2023/09/08 04:31:59;;;;;;;5.88;5.28;;;;;;;;;;5280635;28;20320;-69
2023/09/08 04:34:30;;;;;;;7.07;4.97;;;;;;;;;;5280846;28;20039;-69
2023/09/08 04:37:01;;;;;;;10.10;5.80;;;;;;;;;;5282008;28;20383;-68
2023/09/08 04:39:33;;;;;;;5.53;5.13;;;;;;;;;;5283854;28;20299;-69
2023/09/08 04:42:05;;;;;;;6.88;5.32;;;;;;;;;;5285316;28;20035;-69
2023/09/08 04:44:36;;;;;;;6.38;5.75;;;;;;;;;;5284046;28;20023;-70
2023/09/08 04:47:08;;;;;;;7.00;5.97;;;;;;;;;;5285366;28;20028;-69
2023/09/08 04:49:40;;;;;;;9.00;5.72;;;;;;;;;;5284469;28;20270;-69
2023/09/08 04:52:11;;;;;;;6.70;5.53;;;;;;;;;;5284208;28;20559;-69
2023/09/08 04:54:42;;;;;;;6.03;5.47;;;;;;;;;;5284310;28;20024;-69
2023/09/08 04:57:13;;;;;;;7.93;5.70;;;;;;;;;;5284955;28;20305;-69
2023/09/08 04:59:44;;;;;;;6.30;5.80;;;;;;;;;;5283585;28;20028;-70
2023/09/08 05:02:16;;;;;;;6.43;5.82;;;;;;;;;;5284830;28;20263;-69
2023/09/08 05:04:47;;;;;;;7.20;5.93;;;;;;;;;;5284153;28;20043;-69
2023/09/08 05:07:19;;;;;;;7.55;5.55;;;;;;;;;;5283566;28;20056;-69
2023/09/08 05:09:50;;;;;;;8.05;6.05;;;;;;;;;;5284137;28;20024;-69
2023/09/08 05:12:21;;;;;;;11.93;5.63;;;;;;;;;;5283980;28;20047;-69
2023/09/08 05:14:56;;;;;;;6.20;5.33;;;;;;;;;;5283768;28;20321;-70
2023/09/08 05:17:27;;;;;;;8.10;5.93;;;;;;;;;;5284110;28;20334;-69
2023/09/08 05:19:58;;;;;;;6.25;5.65;;;;;;;;;;5283292;28;20135;-70
2023/09/08 05:22:30;;;;;;;6.38;5.30;;;;;;;;;;5284224;28;20475;-70
2023/09/08 05:25:01;;;;;;;7.30;5.70;;;;;;;;;;5284481;28;20063;-69
2023/09/08 05:27:32;;;;;;;8.35;5.82;;;;;;;;;;5283066;28;20316;-70
2023/09/08 05:30:04;;;;;;;8.38;5.72;;;;;;;;;;5284334;28;20471;-70
2023/09/08 05:32:35;;;;;;;6.43;5.57;;;;;;;;;;5283568;28;20123;-70
2023/09/08 05:35:06;;;;;;;13.85;6.32;;;;;;;;;;5283375;28;20024;-69
2023/09/08 05:37:37;;;;;;;7.45;6.72;;;;;;;;;;5283630;28;20017;-70
2023/09/08 05:40:09;;;;;;;13.75;6.63;;;;;;;;;;5284132;28;20029;-69
2023/09/08 05:42:40;;;;;;;10.57;6.00;;;;;;;;;;5283128;28;20027;-70
2023/09/08 05:45:11;;;;;;;7.57;5.93;;;;;;;;;;5284219;28;20498;-70
2023/09/08 05:47:42;;;;;;;11.40;7.55;;;;;;;;;;5282483;28;20020;-70
2023/09/08 05:50:13;;;;;;;6.68;6.03;;;;;;;;;;5282843;28;20028;-70
2023/09/08 05:52:45;;;;;;;15.07;6.90;;;;;;;;;;5283300;28;20027;-70
2023/09/08 05:55:16;;;;;;;8.15;5.43;;;;;;;;;;5283095;28;20027;-70
2023/09/08 05:57:47;;;;;;;6.07;5.43;;;;;;;;;;5283515;28;20025;-71
2023/09/08 06:00:19;;;;;;;15.75;6.78;;;;;;;;;;5283678;28;20028;-70
2023/09/08 06:02:51;;;;;;;12.00;6.53;;;;;;;;;;5282210;28;20021;-70
2023/09/08 06:05:22;;;;;;;8.55;6.30;;;;;;;;;;5283594;28;20502;-70
2023/09/08 06:07:54;;;;;;;13.23;6.28;;;;;;;;;;5282614;28;20048;-70
2023/09/08 06:10:25;;;;;;;9.85;6.63;;;;;;;;;;5282368;28;20016;-71
2023/09/08 06:12:56;;;;;;;11.23;6.20;;;;;;;;;;5282954;28;20428;-70
2023/09/08 06:15:27;;;;;;;15.97;6.60;;;;;;;;;;5282928;28;20012;-70
2023/09/08 06:17:59;;;;;;;9.40;6.07;;;;;;;;;;5282194;28;20729;-70
2023/09/08 06:20:30;;;;;;;7.83;6.73;;;;;;;;;;5282727;28;20038;-71
2023/09/08 06:23:01;;;;;;;8.70;5.95;;;;;;;;;;5282618;28;20263;-70
2023/09/08 06:25:32;;;;;;;14.77;5.53;;;;;;;;;;5282443;28;20024;-70
2023/09/08 06:28:04;;;;;;;6.43;5.82;;;;;;;;;;5283110;28;20021;-70
2023/09/08 06:30:36;;;;;;;9.00;6.00;;;;;;;;;;5281585;28;20032;-70
2023/09/08 06:33:08;;;;;;;9.10;6.10;;;;;;;;;;5283201;28;20055;-70
2023/09/08 06:35:39;;;;;;;7.80;5.90;;;;;;;;;;5282459;28;20111;-70
2023/09/08 06:38:10;;;;;;;9.30;5.30;;;;;;;;;;5281796;28;20431;-68
2023/09/08 06:40:41;;;;;;;8.20;5.95;;;;;;;;;;5282154;28;20291;-69
2023/09/08 06:43:13;;;;;;;8.38;6.40;;;;;;;;;;5282652;28;20492;-69
2023/09/08 06:45:47;;;;;;;10.30;5.57;;;;;;;;;;5281378;28;20016;-70
2023/09/08 06:48:18;;;;;;;9.90;5.55;;;;;;;;;;5282538;28;20095;-69
2023/09/08 06:50:54;;;;;;;7.90;5.97;;;;;;;;;;5281206;28;20104;-70
2023/09/08 06:53:26;;;;;;;9.60;5.78;;;;;;;;;;5282253;28;20259;-69
2023/09/08 06:55:57;;;;;;;8.20;5.95;;;;;;;;;;5282245;28;20020;-68
2023/09/08 06:58:29;;;;;;;10.85;5.72;;;;;;;;;;5281481;28;20020;-68
2023/09/08 07:01:00;;;;;;;10.52;5.85;;;;;;;;;;5282106;28;20032;-68
2023/09/08 07:03:36;;;;;;;7.57;4.68;;;;;;;;;;5281603;28;20104;-69
2023/09/08 07:06:07;;;;;;;8.35;5.85;;;;;;;;;;5281323;28;20017;-70
2023/09/08 07:08:39;;;;;;;13.00;5.90;;;;;;;;;;5281651;28;20047;-70
2023/09/08 07:11:10;;;;;;;11.80;5.23;;;;;;;;;;5282021;28;20036;-69
2023/09/08 07:13:41;;;;;;;6.90;5.53;;;;;;;;;;5280890;28;20263;-70
2023/09/08 07:16:12;;;;;;;9.40;5.47;;;;;;;;;;5282166;28;20329;-69
2023/09/08 07:18:43;;;;;;;8.57;4.85;;;;;;;;;;5281877;28;20263;-69
2023/09/08 07:21:15;;;;;;;8.80;5.20;;;;;;;;;;5281447;28;20064;-69
2023/09/08 07:23:46;;;;;;;7.60;5.10;;;;;;;;;;5281148;28;20009;-68
2023/09/08 07:26:17;;;;;;;7.43;5.38;;;;;;;;;;5281181;28;20478;-69
2023/09/08 07:28:48;;;;;;;7.37;5.23;;;;;;;;;;5281453;28;20036;-68
2023/09/08 07:31:20;;;;;;;9.23;5.18;;;;;;;;;;5278372;28;20255;-69
2023/09/08 07:33:51;;;;;;;6.75;4.60;;;;;;;;;;5280361;28;20025;-68
2023/09/08 07:36:22;;;;;;;6.33;4.90;;;;;;;;;;5281770;28;20020;-69
2023/09/08 07:38:53;;;;;;;6.47;4.80;;;;;;;;;;5281023;28;20251;-69
2023/09/08 07:41:24;;;;;;;5.63;4.32;;;;;;;;;;5280328;28;20795;-70
2023/09/08 07:43:56;;;;;;;7.23;4.83;;;;;;;;;;5281718;28;20359;-69
2023/09/08 07:46:27;;;;;;;7.87;4.73;;;;;;;;;;5281629;28;20277;-69
2023/09/08 07:48:59;;;;;;;7.85;4.63;;;;;;;;;;5280635;28;20254;-70
2023/09/08 07:51:30;;;;;;;11.13;4.28;;;;;;;;;;5279591;28;20519;-70
2023/09/08 07:54:03;;;;;;;7.60;4.65;;;;;;;;;;5280805;28;20066;-69
2023/09/08 07:56:34;;;;;;;9.48;4.43;;;;;;;;;;5281482;28;20028;-69
2023/09/08 07:59:06;;;;;;;17.75;5.25;;;;;;;;;;5279985;28;20013;-69
2023/09/08 08:01:37;;;;;;;6.10;4.20;;;;;;;;;;5279682;28;20471;-69
2023/09/08 08:04:08;;;;;;;6.65;4.03;;;;;;;;;;5281213;28;20017;-69
2023/09/08 08:06:40;;;;;;;5.13;3.85;;;;;;;;;;5280394;28;20021;-70
2023/09/08 08:09:11;;;;;;;5.75;4.00;;;;;;;;;;5280465;28;20035;-69
2023/09/08 08:11:42;;;;;;;7.90;3.90;;;;;;;;;;5280235;28;20120;-69
2023/09/08 08:14:13;;;;;;;19.52;5.28;;;;;;;;;;5285224;28;20319;-70
2023/09/08 08:16:45;;;;;;;7.00;4.22;;;;;;;;;;5284063;28;20016;-70
2023/09/08 08:19:16;;;;;;;9.77;4.57;;;;;;;;;;5285395;28;20479;-70
2023/09/08 08:21:47;;;;;;;6.43;3.53;;;;;;;;;;5284794;28;20024;-69
2023/09/08 08:24:19;;;;;;;4.63;3.40;;;;;;;;;;5284548;28;20333;-69
2023/09/08 08:26:51;;;;;;;6.38;3.70;;;;;;;;;;5284805;28;20040;-70
2023/09/08 08:29:23;;;;;;;5.40;3.42;;;;;;;;;;5284650;28;20021;-71
2023/09/08 08:31:55;;;;;;;7.37;3.40;;;;;;;;;;5285108;28;20016;-71
2023/09/08 08:34:26;;;;;;;6.35;3.03;;;;;;;;;;5285296;28;20356;-71
2023/09/08 08:36:58;;;;;;;6.68;2.60;;;;;;;;;;5284474;28;20024;-71
2023/09/08 08:39:29;;;;;;;4.07;3.28;;;;;;;;;;5284857;28;20021;-71
2023/09/08 08:42:08;;;;;;;4.78;2.75;;;;;;;;;;5285145;28;20078;-71
2023/09/08 08:44:39;;;;;;;2.78;2.05;;;;;;;;;;5284150;28;20019;-71
2023/09/08 08:47:10;;;;;;;6.45;3.38;;;;;;;;;;5284923;28;20028;-71
2023/09/08 08:49:46;;;;;;;5.68;3.03;;;;;;;;;;5284509;28;20029;-71
2023/09/08 08:52:18;;;;;;;6.78;2.88;;;;;;;;;;5284138;28;20024;-71
2023/09/08 08:54:49;;;;;;;6.93;2.67;;;;;;;;;;5284519;28;20024;-70
2023/09/08 08:57:20;;;;;;;3.70;2.80;;;;;;;;;;5284249;28;20020;-71
2023/09/08 08:59:52;;;;;;;3.70;2.67;;;;;;;;;;5284205;28;20779;-69
2023/09/08 09:02:25;;;;;;;5.65;3.00;;;;;;;;;;5284415;28;20383;-68
2023/09/08 09:04:56;;;;;;;5.60;3.33;;;;;;;;;;5283740;28;20020;-68
2023/09/08 09:07:28;;;;;;;6.03;2.75;;;;;;;;;;5284348;28;20052;-72
2023/09/08 09:09:59;;;;;;;4.72;3.17;;;;;;;;;;5284440;28;20017;-70
2023/09/08 09:12:30;;;;;;;5.60;3.15;;;;;;;;;;5283423;28;20016;-70
2023/09/08 09:15:04;;;;;;;12.18;3.15;;;;;;;;;;5283495;28;20043;-70
2023/09/08 09:17:35;;;;;;;6.32;3.40;;;;;;;;;;5281926;28;20017;-70
2023/09/08 09:20:17;;;;;;;7.30;2.78;;;;;;;;;;5281831;28;20029;-70
2023/09/08 09:22:49;;;;;;;5.80;2.85;;;;;;;;;;5282220;28;20471;-71
2023/09/08 09:25:24;;;;;;;11.95;2.97;;;;;;;;;;5281124;28;20021;-71
2023/09/08 09:28:00;;;;;;;8.25;3.30;;;;;;;;;;5281853;28;20387;-70
2023/09/08 09:30:51;;;;;;;7.50;3.20;;;;;;;;;;5282889;28;20020;-71
2023/09/08 09:33:23;;;;;;;7.95;3.08;;;;;;;;;;5281809;28;20037;-70
2023/09/08 09:35:54;;;;;;;7.32;3.35;;;;;;;;;;5283840;28;20364;-70
2023/09/08 09:38:26;;;;;;;8.63;3.10;;;;;;;;;;5284087;28;20388;-71
2023/09/08 09:40:58;;;;;;;4.05;2.78;;;;;;;;;;5283157;28;20104;-70
2023/09/08 09:43:29;;;;;;;5.38;2.53;;;;;;;;;;5283529;28;20056;-70
2023/09/08 09:46:01;;;;;;;4.22;2.33;;;;;;;;;;5283734;28;20028;-70
2023/09/08 09:48:32;;;;;;;3.77;2.13;;;;;;;;;;5282667;28;20023;-69
2023/09/08 09:51:16;;;;;;;3.90;2.08;;;;;;;;;;5283905;28;20463;-69
2023/09/08 09:53:51;;;;;;;6.90;2.38;;;;;;;;;;5282503;28;20024;-69
2023/09/08 09:56:23;;;;;;;15.90;2.47;;;;;;;;;;5283712;28;20013;-69
2023/09/08 09:58:54;;;;;;;17.05;3.25;;;;;;;;;;5283456;28;20482;-69
2023/09/08 10:01:26;;;;;;;11.10;2.50;;;;;;;;;;5282731;28;20036;-69
2023/09/08 10:03:57;;;;;;;5.57;1.90;;;;;;;;;;5283519;28;20028;-70
2023/09/08 10:06:31;;;;;;;9.25;1.90;;;;;;;;;;5283295;28;20020;-69
2023/09/08 10:09:04;;;;;;;3.50;1.67;;;;;;;;;;5282569;28;20074;-69
2023/09/08 10:11:41;;;;;;;4.57;2.10;;;;;;;;;;5282830;28;20090;-69
2023/09/08 10:14:13;;;;;;;5.47;2.10;;;;;;;;;;5283368;28;20032;-68
2023/09/08 10:16:49;;;;;;;19.85;3.40;;;;;;;;;;5282015;28;20498;-67
2023/09/08 10:19:21;;;;;;;4.82;2.50;;;;;;;;;;5283423;28;20020;-68
2023/09/08 10:21:55;;;;;;;3.70;1.77;;;;;;;;;;5281611;28;20024;-69
2023/09/08 10:24:27;;;;;;;5.85;1.63;;;;;;;;;;5282825;28;20017;-69
2023/09/08 10:27:02;;;;;;;5.88;2.35;;;;;;;;;;5282881;28;20099;-69
2023/09/08 10:29:34;;;;;;;2.90;1.88;;;;;;;;;;5281767;28;20016;-69
2023/09/08 10:32:06;;;;;;;4.55;2.03;;;;;;;;;;5282929;28;20043;-68
2023/09/08 10:34:38;;;;;;;6.63;2.20;;;;;;;;;;5282448;28;20016;-68
2023/09/08 10:37:20;;;;;;;10.82;2.22;;;;;;;;;;5282061;28;20016;-68
2023/09/08 10:39:51;;;;;;;3.00;1.90;;;;;;;;;;5282385;28;20020;-68
2023/09/08 10:42:28;;;;;;;4.37;1.57;;;;;;;;;;5282789;28;20111;-69
2023/09/08 10:45:04;;;;;;;3.10;2.28;;;;;;;;;;5282342;28;20028;-69
2023/09/08 10:47:47;;;;;;;3.65;2.30;;;;;;;;;;5282787;28;20019;-69
2023/09/08 10:50:19;;;;;;;5.07;1.77;;;;;;;;;;5282052;28;20025;-69
2023/09/08 10:53:04;;;;;;;5.13;2.30;;;;;;;;;;5282105;28;20020;-70
2023/09/08 10:55:36;;;;;;;5.65;1.75;;;;;;;;;;5282330;28;20028;-70
2023/09/08 10:58:09;;;;;;;3.53;2.30;;;;;;;;;;5281842;28;20375;-68
2023/09/08 11:00:44;;;;;;;3.03;1.80;;;;;;;;;;5281856;28;20056;-68
2023/09/08 11:03:26;;;;;;;6.43;2.13;;;;;;;;;;5282381;28;20024;-68
2023/09/08 11:05:57;;;;;;;3.85;2.20;;;;;;;;;;5281626;28;20466;-68
2023/09/08 11:08:29;;;;;;;4.37;1.87;;;;;;;;;;5282082;28;20154;-69
2023/09/08 11:11:01;;;;;;;6.37;2.23;;;;;;;;;;5281526;28;20028;-70
2023/09/08 11:13:32;;;;;;;5.22;1.92;;;;;;;;;;5281796;28;20255;-71
2023/09/08 11:16:03;;;;;;;5.50;1.83;;;;;;;;;;5282342;28;20074;-71
2023/09/08 11:18:35;;;;;;;4.20;1.85;;;;;;;;;;5281038;28;20016;-72
2023/09/08 11:21:08;;;;;;;5.05;1.98;;;;;;;;;;5282075;28;20028;-71
2023/09/08 11:23:39;;;;;;;10.52;2.30;;;;;;;;;;5281498;28;20025;-71
2023/09/08 11:26:11;;;;;;;8.80;2.33;;;;;;;;;;5281287;28;20422;-71
2023/09/08 11:28:43;;;;;;;2.97;1.38;;;;;;;;;;5281342;28;20182;-71
2023/09/08 11:31:14;;;;;;;4.55;1.98;;;;;;;;;;5282233;28;20103;-71
2023/09/08 11:33:48;;;;;;;4.80;1.50;;;;;;;;;;5280554;28;20040;-70
2023/09/08 11:36:19;;;;;;;4.03;1.48;;;;;;;;;;5282112;28;20271;-71
2023/09/08 11:38:52;;;;;;;4.40;1.80;;;;;;;;;;5281157;28;20018;-71
2023/09/08 11:41:23;;;;;;;3.60;1.55;;;;;;;;;;5280768;28;20058;-72
2023/09/08 11:43:54;;;;;;;3.42;1.25;;;;;;;;;;5281706;28;20074;-71
2023/09/08 11:46:26;;;;;;;4.95;1.30;;;;;;;;;;5280417;28;20136;-71
2023/09/08 11:48:58;;;;;;;4.28;1.83;;;;;;;;;;5281041;28;20546;-71
2023/09/08 11:51:30;;;;;;;4.93;1.88;;;;;;;;;;5281484;28;20052;-71
2023/09/08 11:54:01;;;;;;;3.20;1.85;;;;;;;;;;5281222;28;20031;-70
2023/09/08 11:56:32;;;;;;;3.78;1.50;;;;;;;;;;5281347;28;20107;-71
2023/09/08 11:59:04;;;;;;;3.97;1.47;;;;;;;;;;5281654;28;20170;-70
2023/09/08 12:01:35;;;;;;;2.47;1.70;;;;;;;;;;5280322;28;20388;-70
2023/09/08 12:04:06;;;;;;;2.25;1.60;;;;;;;;;;5281632;28;20012;-70
2023/09/08 12:06:39;;;;;;;2.30;1.13;;;;;;;;;;5281186;28;20032;-70
2023/09/08 12:09:11;;;;;;;3.40;1.63;;;;;;;;;;5281015;28;20397;-71
2023/09/08 12:11:42;;;;;;;3.92;1.27;;;;;;;;;;5281045;28;20025;-71
2023/09/08 12:14:14;;;;;;;5.93;1.35;;;;;;;;;;5281095;28;20040;-71
2023/09/08 12:16:46;;;;;;;5.55;1.77;;;;;;;;;;5281274;28;20013;-70
2023/09/08 12:19:30;;;;;;;3.40;1.50;;;;;;;;;;5281356;28;20028;-71
2023/09/08 12:22:02;;;;;;;2.60;1.50;;;;;;;;;;5280680;28;20266;-70
2023/09/08 12:24:52;;;;;;;27.58;2.97;;;;;;;;;;5280761;28;20352;-71
2023/09/08 12:27:24;;;;;;;2.47;1.05;;;;;;;;;;5281129;28;20032;-70
2023/09/08 12:29:55;;;;;;;5.55;1.35;;;;;;;;;;5280411;28;20479;-69
2023/09/08 12:32:29;;;;;;;3.33;1.30;;;;;;;;;;5281252;28;20016;-70
2023/09/08 12:35:04;;;;;;;5.70;1.02;;;;;;;;;;5281112;28;20323;-70
2023/09/08 12:37:36;;;;;;;3.75;1.23;;;;;;;;;;5280098;28;20051;-68
2023/09/08 12:40:07;;;;;;;4.63;1.52;;;;;;;;;;5281412;28;20471;-68
2023/09/08 12:42:38;;;;;;;2.15;1.30;;;;;;;;;;5280078;28;20036;-69
2023/09/08 12:45:11;;;;;;;2.63;1.00;;;;;;;;;;5281206;28;20159;-70
2023/09/08 12:47:43;;;;;;;4.90;1.50;;;;;;;;;;5274690;28;20539;-71
2023/09/08 12:50:14;;;;;;;3.45;1.45;;;;;;;;;;5279746;28;20024;-70
2023/09/08 12:52:45;;;;;;;12.50;2.38;;;;;;;;;;5280727;28;20142;-70
2023/09/08 12:55:16;;;;;;;4.77;1.50;;;;;;;;;;5280856;28;20027;-70
2023/09/08 12:57:49;;;;;;;2.92;1.55;;;;;;;;;;5278724;28;20034;-70
2023/09/08 13:00:23;;;;;;;4.65;1.50;;;;;;;;;;5283238;28;20025;-70
2023/09/08 13:02:54;;;;;;;5.85;1.63;;;;;;;;;;5284552;28;20021;-70
2023/09/08 13:05:25;;;;;;;3.10;1.63;;;;;;;;;;5283753;28;20047;-70
2023/09/08 13:07:57;;;;;;;3.33;1.50;;;;;;;;;;5284173;28;20094;-70
2023/09/08 13:10:28;;;;;;;4.23;1.40;;;;;;;;;;5284201;28;20016;-70
2023/09/08 13:12:59;;;;;;;6.17;1.33;;;;;;;;;;5283759;28;20350;-70
2023/09/08 13:15:30;;;;;;;2.43;1.40;;;;;;;;;;5283914;28;20285;-69
2023/09/08 13:18:01;;;;;;;3.17;1.40;;;;;;;;;;5284060;28;20467;-71
2023/09/08 13:20:32;;;;;;;5.80;1.50;;;;;;;;;;5283830;28;20074;-71
2023/09/08 13:23:04;;;;;;;3.67;1.40;;;;;;;;;;5284505;28;20760;-69
2023/09/08 13:25:35;;;;;;;4.40;1.80;;;;;;;;;;5281881;28;20036;-68
2023/09/08 13:28:06;;;;;;;2.53;1.47;;;;;;;;;;5284606;28;20262;-70
2023/09/08 13:30:37;;;;;;;3.83;1.60;;;;;;;;;;5283580;28;20036;-70
2023/09/08 13:33:08;;;;;;;3.53;1.63;;;;;;;;;;5283567;28;20471;-69
2023/09/08 13:35:40;;;;;;;2.55;1.20;;;;;;;;;;5283505;28;20024;-69
2023/09/08 13:38:11;;;;;;;3.25;1.48;;;;;;;;;;5284170;28;20032;-69
2023/09/08 13:40:43;;;;;;;4.27;1.83;;;;;;;;;;5282414;28;20123;-70
2023/09/08 13:43:15;;;;;;;8.57;1.75;;;;;;;;;;5283852;28;20274;-69
2023/09/08 13:45:46;;;;;;;3.78;1.80;;;;;;;;;;5282607;28;20017;-70
2023/09/08 13:48:17;;;;;;;29.27;3.30;;;;;;;;;;5284159;28;20048;-69
2023/09/08 13:50:48;;;;;;;8.60;1.97;;;;;;;;;;5283336;28;20025;-69
2023/09/08 13:53:20;;;;;;;3.93;2.10;;;;;;;;;;5283178;28;20066;-69
2023/09/08 13:55:51;;;;;;;3.92;1.92;;;;;;;;;;5283361;28;20055;-70
2023/09/08 13:58:22;;;;;;;4.23;1.87;;;;;;;;;;5283672;28;20044;-69
2023/09/08 14:00:54;;;;;;;3.80;1.73;;;;;;;;;;5282410;28;20761;-69
2023/09/08 14:03:26;;;;;;;3.20;1.90;;;;;;;;;;5283227;28;20455;-70
2023/09/08 14:05:57;;;;;;;4.05;1.92;;;;;;;;;;5283144;28;20031;-69
2023/09/08 14:08:28;;;;;;;2.93;1.53;;;;;;;;;;5282003;28;20048;-70
2023/09/08 14:10:59;;;;;;;3.40;1.57;;;;;;;;;;5282157;28;20523;-70
2023/09/08 14:13:30;;;;;;;7.00;1.87;;;;;;;;;;5282896;28;20263;-70
2023/09/08 14:16:03;;;;;;;4.53;2.13;;;;;;;;;;5282467;28;20098;-69
2023/09/08 14:18:34;;;;;;;8.10;1.65;;;;;;;;;;5282640;28;20312;-69
2023/09/08 14:21:06;;;;;;;6.27;2.13;;;;;;;;;;5282210;28;20029;-69
2023/09/08 14:23:38;;;;;;;2.70;1.58;;;;;;;;;;5282278;28;20020;-69
2023/09/08 14:26:09;;;;;;;3.38;1.95;;;;;;;;;;5283084;28;20025;-69
2023/09/08 14:28:41;;;;;;;4.77;1.50;;;;;;;;;;5281752;28;20021;-69
2023/09/08 14:31:12;;;;;;;4.65;1.63;;;;;;;;;;5283164;28;20379;-69
2023/09/08 14:33:44;;;;;;;3.95;1.58;;;;;;;;;;5282429;28;20107;-69
2023/09/08 14:36:18;;;;;;;5.45;1.50;;;;;;;;;;5282019;28;20371;-69
2023/09/08 14:38:49;;;;;;;3.42;1.33;;;;;;;;;;5282390;28;20013;-69
2023/09/08 14:41:21;;;;;;;3.73;1.23;;;;;;;;;;5282919;28;20097;-69
2023/09/08 14:43:52;;;;;;;2.97;1.52;;;;;;;;;;5281481;28;20020;-70
2023/09/08 14:46:23;;;;;;;4.87;1.17;;;;;;;;;;5282435;28;20066;-69
2023/09/08 14:48:55;;;;;;;6.07;2.03;;;;;;;;;;5282459;28;20020;-69
2023/09/08 14:51:26;;;;;;;2.45;1.50;;;;;;;;;;5281487;28;20134;-69
2023/09/08 14:53:57;;;;;;;2.93;1.63;;;;;;;;;;5282449;28;20013;-69
2023/09/08 14:56:28;;;;;;;6.53;1.60;;;;;;;;;;5281544;28;20039;-69
2023/09/08 14:58:59;;;;;;;3.70;1.47;;;;;;;;;;5282286;28;20031;-68
2023/09/08 15:01:31;;;;;;;4.93;1.97;;;;;;;;;;5282139;28;20542;-69
2023/09/08 15:04:02;;;;;;;3.78;1.80;;;;;;;;;;5280456;28;20023;-68
2023/09/08 15:06:33;;;;;;;6.50;1.67;;;;;;;;;;5281573;28;20028;-69
2023/09/08 15:09:04;;;;;;;3.53;2.00;;;;;;;;;;5282074;28;20094;-69